Pagina principale
METAR-TAF:

METAR-TAF

Aeroporti :

Genova, Italia

Aeroporto di Genova-Sestri

latitudine: 44-25N, longitudine: 008-51E, altezza: 2 m

Osservazione

Il bollettino è stato emesso 42 minuti fa, alle 12:20 UTC
Vento 14 kt da est/sud-est
Temperature 13°C
Umidità 77%
Pressione 1008 hPa
Visibilità 10 km o più
Nubi sparse ad un'altezza di 2700 ft

METAR: LIMJ 161220Z 12014KT 9999 SCT027 13/09 Q1008

Ora: 14:02 (13:02 UTC)

Previsione

Il bollettino è stato emesso 2 ore e 2 minuti fa, alle 11:00 UTC
Previsione valida dal 16 alle 12 UTC al 17 alle 12 UTC
Vento 6 kt da nord-est
Visibilità 10 km o più
Nubi sparse ad un'altezza di 3000 ft
Evoluzione graduale
dal 17 alle 03 UTC al 17 alle 05 UTC
Vento 18 kt da nord/nord-ovest

TAF: LIMJ 161100Z 1612/1712 05006KT 9999 SCT030 BECMG 1703/1705 34018KT

Osservazioni e previsioni meteorologiche di più di 4000 aeroporti (messaggi METAR e TAF).

Le stazioni disponibili sono rappresentate dai dischi gialli e rossi sulla carta.

Puntare il mouse per vedere il nome della stazione.

Clicca sopra per visualizzare le osservazioni e previsioni meteorologiche.

Per cambiare la mappa : fare clic sui pulsanti verdi con una croce nera per ingrandire, il pulsante verde con un trattino per diminuire, o sulla freccia verde per le mappe adiacenti.


METAR-TAF: